createdAt,value
2018-01-31T01:53:26.624Z,73.00
2018-01-31T01:56:00.041Z,72.80
2018-01-31T01:58:33.528Z,72.60
2018-01-31T02:01:06.825Z,72.60
2018-01-31T02:03:40.228Z,72.70
2018-01-31T02:06:12.806Z,72.80
2018-01-31T02:08:46.236Z,72.90
2018-01-31T02:11:18.697Z,73.10
2018-01-31T02:13:51.348Z,72.90
2018-01-31T02:16:23.877Z,73.20
2018-01-31T02:18:57.393Z,73.40
2018-01-31T02:21:30.103Z,73.20
2018-01-31T02:24:03.905Z,73.30
2018-01-31T02:26:36.857Z,73.30
2018-01-31T02:29:10.271Z,73.60
2018-01-31T02:31:42.773Z,73.60
2018-01-31T02:34:16.002Z,73.80
2018-01-31T02:36:49.276Z,73.70
2018-01-31T02:39:28.177Z,73.60
2018-01-31T02:42:00.592Z,73.70
2018-01-31T02:44:33.200Z,74.00
2018-01-31T02:47:05.598Z,74.10
2018-01-31T02:49:38.150Z,74.30
2018-01-31T02:52:11.518Z,74.50
2018-01-31T02:54:44.128Z,74.50
2018-01-31T02:57:16.541Z,74.30
2018-01-31T02:59:48.968Z,74.40
2018-01-31T03:02:21.471Z,74.40
2018-01-31T03:04:54.392Z,74.40
2018-01-31T03:07:27.731Z,74.40
2018-01-31T03:10:00.260Z,74.40
2018-01-31T03:12:33.689Z,74.30
2018-01-31T03:15:06.112Z,74.30
2018-01-31T03:17:38.576Z,74.30
2018-01-31T03:20:11.087Z,74.30
2018-01-31T03:22:44.292Z,74.30
2018-01-31T03:25:16.688Z,74.30
2018-01-31T03:27:49.980Z,74.30
2018-01-31T03:30:22.448Z,74.30
2018-01-31T03:32:55.031Z,74.30
2018-01-31T03:35:28.506Z,74.50
2018-01-31T03:38:01.056Z,74.70
2018-01-31T03:40:34.346Z,74.50
2018-01-31T03:43:06.948Z,74.40
2018-01-31T03:45:41.114Z,74.60
2018-01-31T03:48:13.815Z,74.40
2018-01-31T03:50:47.225Z,74.30
2018-01-31T03:53:19.973Z,74.20
2018-01-31T03:55:52.464Z,74.30
2018-01-31T03:58:25.095Z,74.30
2018-01-31T04:00:57.570Z,74.30
2018-01-31T04:03:30.752Z,74.30
2018-01-31T04:06:03.772Z,74.20
2018-01-31T04:08:36.994Z,74.30
2018-01-31T04:11:09.559Z,74.10
2018-01-31T04:13:43.721Z,73.60
2018-01-31T04:16:16.670Z,73.60
2018-01-31T04:18:50.248Z,73.40
2018-01-31T04:21:23.156Z,73.50
2018-01-31T04:23:56.588Z,73.50
2018-01-31T04:26:29.635Z,73.40
2018-01-31T04:29:02.933Z,73.40
2018-01-31T04:31:35.539Z,73.30
2018-01-31T04:34:08.024Z,73.20
2018-01-31T04:36:41.445Z,73.10
2018-01-31T04:39:14.055Z,73.10
2018-01-31T04:41:46.622Z,73.00
2018-01-31T04:44:19.962Z,72.90
2018-01-31T04:46:52.418Z,72.60
2018-01-31T04:49:25.802Z,72.60
2018-01-31T04:51:58.324Z,72.30
2018-01-31T04:54:31.586Z,72.30
2018-01-31T04:57:04.321Z,72.40
2018-01-31T04:59:37.580Z,72.60
2018-01-31T05:02:10.102Z,72.70
2018-01-31T05:04:42.494Z,72.70
2018-01-31T05:07:15.894Z,72.40
2018-01-31T05:09:48.411Z,72.40
2018-01-31T05:12:21.004Z,72.20
2018-01-31T05:14:55.221Z,72.60
2018-01-31T05:17:27.874Z,72.50
2018-01-31T05:20:01.104Z,72.60
2018-01-31T05:22:34.376Z,72.90
2018-01-31T05:25:07.008Z,72.90
2018-01-31T05:27:39.816Z,72.80
2018-01-31T05:30:12.708Z,72.90
2018-01-31T05:32:45.558Z,72.80
2018-01-31T05:35:18.101Z,73.00
2018-01-31T05:37:50.791Z,72.90
2018-01-31T05:40:23.375Z,72.90
2018-01-31T05:42:56.018Z,72.90
2018-01-31T05:45:28.530Z,73.10
2018-01-31T05:48:01.045Z,73.00
2018-01-31T05:50:34.454Z,72.80
2018-01-31T05:53:06.982Z,72.70
2018-01-31T05:55:39.785Z,72.60
2018-01-31T05:58:12.514Z,72.50
2018-01-31T06:00:44.969Z,72.40
2018-01-31T06:03:17.517Z,72.30
2018-01-31T06:05:50.097Z,72.40
2018-01-31T06:08:22.682Z,73.20
2018-01-31T06:10:55.960Z,75.40
2018-01-31T06:13:28.758Z,75.30
2018-01-31T06:16:01.192Z,74.90
2018-01-31T06:18:34.548Z,74.40
2018-01-31T06:21:07.982Z,73.80
2018-01-31T06:23:40.731Z,76.90
2018-01-31T06:26:13.793Z,73.60
2018-01-31T06:28:47.048Z,71.90
2018-01-31T06:31:20.445Z,71.00
2018-01-31T06:33:53.770Z,70.60
2018-01-31T06:36:27.096Z,70.60
2018-01-31T06:38:59.886Z,70.30
2018-01-31T06:41:33.342Z,71.10
2018-01-31T06:44:05.928Z,70.50
2018-01-31T06:46:40.477Z,71.10
2018-01-31T06:49:13.082Z,71.10
2018-01-31T06:51:45.526Z,71.30
2018-01-31T06:54:19.070Z,71.60
2018-01-31T06:56:52.280Z,71.60
2018-01-31T06:59:25.130Z,71.70
2018-01-31T07:01:58.424Z,71.60
2018-01-31T07:04:31.253Z,71.60
2018-01-31T07:07:03.833Z,71.80
2018-01-31T07:09:36.460Z,71.80
2018-01-31T07:12:09.815Z,71.90
2018-01-31T07:14:42.528Z,72.20
2018-01-31T07:17:15.042Z,72.20
2018-01-31T07:19:47.707Z,72.30
2018-01-31T07:22:20.215Z,72.40
2018-01-31T07:24:52.731Z,72.40
2018-01-31T07:27:25.394Z,72.30
2018-01-31T07:29:57.880Z,72.30
2018-01-31T07:32:31.257Z,72.20
2018-01-31T07:35:04.764Z,71.90
2018-01-31T07:37:38.166Z,71.80
2018-01-31T07:40:10.812Z,71.80
2018-01-31T07:42:43.321Z,72.00
2018-01-31T07:45:16.621Z,71.90
2018-01-31T07:47:49.546Z,71.90
2018-01-31T07:50:22.392Z,71.90
2018-01-31T07:52:55.472Z,71.80
2018-01-31T07:55:28.643Z,72.00
2018-01-31T07:58:01.413Z,71.00
2018-01-31T08:00:34.429Z,70.60
2018-01-31T08:03:07.113Z,72.30
2018-01-31T08:05:39.610Z,70.40
2018-01-31T08:08:12.104Z,68.80
2018-01-31T08:10:44.718Z,67.80
2018-01-31T08:13:17.219Z,67.80
2018-01-31T08:15:50.595Z,66.70
2018-01-31T08:18:23.197Z,66.80
2018-01-31T08:20:55.671Z,66.10
2018-01-31T08:23:28.117Z,66.10
2018-01-31T08:26:01.563Z,65.50
2018-01-31T08:28:34.199Z,64.80
2018-01-31T08:31:06.662Z,63.20
2018-01-31T08:33:39.389Z,62.00
2018-01-31T08:36:11.981Z,60.40
2018-01-31T08:38:44.591Z,59.50
2018-01-31T08:41:17.226Z,59.30
2018-01-31T08:43:50.652Z,58.70
2018-01-31T08:46:23.585Z,58.70
2018-01-31T08:48:56.859Z,57.60
2018-01-31T08:51:29.356Z,56.20
2018-01-31T08:54:02.798Z,55.50
2018-01-31T08:56:35.846Z,55.50
2018-01-31T08:59:08.411Z,55.10
2018-01-31T09:01:40.920Z,55.10
2018-01-31T09:04:14.276Z,54.60
2018-01-31T09:06:46.840Z,54.40
2018-01-31T09:09:19.362Z,53.90
2018-01-31T09:11:51.772Z,54.00
2018-01-31T09:14:24.321Z,54.00
2018-01-31T09:16:57.419Z,54.20
2018-01-31T09:19:30.185Z,53.80
2018-01-31T09:22:02.829Z,53.70
2018-01-31T09:24:35.345Z,52.90
2018-01-31T09:27:08.743Z,51.60
2018-01-31T09:29:41.466Z,51.70
2018-01-31T09:32:14.718Z,51.00
2018-01-31T09:34:47.407Z,50.90
2018-01-31T09:37:20.127Z,50.40
2018-01-31T09:39:53.208Z,51.80
2018-01-31T09:42:26.399Z,51.80
2018-01-31T09:44:59.748Z,52.00
2018-01-31T09:47:32.402Z,52.10
2018-01-31T09:50:04.937Z,52.00
2018-01-31T09:52:37.927Z,52.40
2018-01-31T09:55:11.784Z,53.30
2018-01-31T09:57:44.304Z,52.20
2018-01-31T10:00:17.609Z,52.30
2018-01-31T10:02:50.168Z,52.40
2018-01-31T10:05:22.659Z,51.80
2018-01-31T10:07:55.330Z,51.90
2018-01-31T10:10:28.731Z,52.40
2018-01-31T10:13:01.485Z,52.00
2018-01-31T10:15:34.750Z,51.50
2018-01-31T10:18:07.704Z,49.50
2018-01-31T10:20:40.236Z,49.00
2018-01-31T10:23:13.446Z,47.80
2018-01-31T10:25:46.982Z,48.20
2018-01-31T10:28:19.890Z,48.20
2018-01-31T10:30:52.379Z,47.90
2018-01-31T10:33:25.758Z,48.00
2018-01-31T10:35:58.282Z,48.00
2018-01-31T10:38:30.720Z,47.90
2018-01-31T10:41:10.445Z,47.50
2018-01-31T10:43:43.068Z,46.70
2018-01-31T10:46:15.721Z,46.90
2018-01-31T10:48:48.267Z,46.90
2018-01-31T10:51:21.475Z,46.60
2018-01-31T10:57:29.098Z,47.20
2018-01-31T10:59:01.136Z,47.60
2018-01-31T11:01:33.527Z,47.70
2018-01-31T11:04:06.227Z,47.00
2018-01-31T11:06:38.882Z,47.50
2018-01-31T11:09:11.660Z,47.90
2018-01-31T11:11:45.751Z,48.00
2018-01-31T11:14:19.451Z,48.50
2018-01-31T11:16:52.369Z,48.50
2018-01-31T11:19:25.023Z,49.10
2018-01-31T11:21:57.611Z,49.50
2018-01-31T11:24:30.362Z,49.90
2018-01-31T11:27:03.034Z,50.00
2018-01-31T11:29:36.294Z,50.30
2018-01-31T11:32:08.911Z,49.90
2018-01-31T11:34:41.398Z,50.30
2018-01-31T11:37:14.759Z,49.50
2018-01-31T11:39:47.481Z,49.20
2018-01-31T11:42:20.839Z,49.30
2018-01-31T11:44:53.264Z,49.60
2018-01-31T11:47:25.754Z,49.80
2018-01-31T11:49:58.424Z,50.10
2018-01-31T11:52:31.780Z,50.00
2018-01-31T11:55:04.337Z,50.70
2018-01-31T11:57:36.754Z,49.80
2018-01-31T12:00:12.396Z,50.00
2018-01-31T12:02:44.910Z,49.60
2018-01-31T12:05:18.194Z,49.90
2018-01-31T12:07:51.698Z,50.20
2018-01-31T12:10:38.550Z,51.30
2018-01-31T12:13:30.622Z,50.40
2018-01-31T12:16:21.706Z,50.40
2018-01-31T12:22:22.131Z,50.70
2018-01-31T12:25:13.888Z,50.60
2018-01-31T12:28:05.311Z,50.50
2018-01-31T12:33:53.455Z,50.40
2018-01-31T12:39:34.367Z,50.20
2018-01-31T12:42:06.627Z,50.50
2018-01-31T12:44:40.008Z,50.90
2018-01-31T12:47:31.689Z,50.90
2018-01-31T12:53:29.809Z,50.10
2018-01-31T12:59:32.829Z,50.60
2018-01-31T13:02:22.384Z,50.70
2018-01-31T13:05:04.782Z,50.80
2018-01-31T13:07:55.957Z,51.00
2018-01-31T13:10:47.391Z,50.80
2018-01-31T13:13:38.378Z,51.40
2018-01-31T13:16:30.081Z,50.30
2018-01-31T13:22:33.582Z,50.60
2018-01-31T13:28:37.161Z,50.40
2018-01-31T13:31:30.345Z,50.60
2018-01-31T13:34:21.950Z,50.40
2018-01-31T13:37:19.180Z,50.40
2018-01-31T13:43:18.110Z,50.80
2018-01-31T13:46:09.746Z,50.90
2018-01-31T13:49:01.752Z,51.10
2018-01-31T13:51:53.379Z,50.70
2018-01-31T13:57:53.918Z,49.70
2018-01-31T14:00:46.495Z,49.80
2018-01-31T14:03:37.632Z,49.80
2018-01-31T14:06:28.915Z,50.20
2018-01-31T14:09:20.339Z,50.50
2018-01-31T14:12:11.937Z,49.90
2018-01-31T14:15:03.554Z,50.20
2018-01-31T14:17:56.274Z,50.00
2018-01-31T14:20:47.855Z,49.90
2018-01-31T14:23:38.891Z,49.90
2018-01-31T14:26:30.658Z,50.10
2018-01-31T14:29:22.708Z,50.10
2018-01-31T14:32:14.494Z,49.90
2018-01-31T14:35:06.279Z,49.90
2018-01-31T14:37:39.119Z,50.30
2018-01-31T14:40:11.693Z,50.50
2018-01-31T14:42:44.375Z,50.70
2018-01-31T14:45:17.170Z,50.70
2018-01-31T14:47:49.435Z,50.60
2018-01-31T14:50:22.050Z,50.50
2018-01-31T14:52:54.656Z,50.30
2018-01-31T14:55:27.272Z,50.20
2018-01-31T14:57:59.684Z,49.80
2018-01-31T15:00:32.302Z,49.90
2018-01-31T15:03:04.692Z,50.10
2018-01-31T15:05:37.313Z,50.40
2018-01-31T15:08:10.705Z,50.20
2018-01-31T15:10:43.127Z,50.30
2018-01-31T15:13:15.803Z,50.60
2018-01-31T15:15:48.131Z,50.70
2018-01-31T15:18:20.543Z,51.40
2018-01-31T15:20:53.399Z,51.40
2018-01-31T15:23:25.831Z,51.40
2018-01-31T15:25:59.137Z,51.10
2018-01-31T15:28:32.370Z,51.40
2018-01-31T15:31:05.995Z,51.20
2018-01-31T15:33:38.672Z,51.60
2018-01-31T15:36:11.832Z,51.40
2018-01-31T15:38:44.409Z,51.30
2018-01-31T15:41:17.413Z,51.80
2018-01-31T15:43:50.091Z,51.80
2018-01-31T15:46:22.633Z,51.70
2018-01-31T15:48:55.864Z,52.00
2018-01-31T15:51:29.492Z,52.10
2018-01-31T15:54:03.221Z,52.10
2018-01-31T15:56:35.691Z,52.80
2018-01-31T15:59:08.132Z,52.90
2018-01-31T16:01:41.438Z,53.00
2018-01-31T16:04:13.993Z,53.00
2018-01-31T16:06:46.523Z,53.00
2018-01-31T16:09:18.831Z,53.40
2018-01-31T16:11:51.590Z,53.80
2018-01-31T16:14:23.757Z,53.80
2018-01-31T16:16:56.433Z,54.00
2018-01-31T16:19:47.573Z,54.30
2018-01-31T16:22:20.822Z,54.40
2018-01-31T16:24:53.453Z,54.80
2018-01-31T16:27:25.953Z,55.00
2018-01-31T16:30:17.185Z,55.20
2018-01-31T16:33:08.319Z,55.30
2018-01-31T16:35:41.707Z,55.50
2018-01-31T16:38:14.236Z,55.60
2018-01-31T16:40:47.501Z,55.50
2018-01-31T16:43:20.915Z,55.50
2018-01-31T16:45:54.880Z,55.90
2018-01-31T16:48:27.691Z,56.00
2018-01-31T16:51:00.123Z,56.20
2018-01-31T16:53:32.814Z,56.40
2018-01-31T16:56:06.163Z,55.80
2018-01-31T16:58:38.579Z,55.50
2018-01-31T17:01:11.239Z,54.50
2018-01-31T17:03:45.337Z,53.90
2018-01-31T17:06:18.168Z,53.90
2018-01-31T17:08:50.639Z,53.50
2018-01-31T17:11:23.052Z,53.20
2018-01-31T17:13:56.559Z,52.70
2018-01-31T17:16:29.241Z,52.70
2018-01-31T17:19:02.611Z,52.30
2018-01-31T17:21:35.919Z,52.40
2018-01-31T17:24:08.937Z,52.40
2018-01-31T17:26:42.281Z,52.50
2018-01-31T17:29:15.102Z,52.30
2018-01-31T17:31:48.448Z,52.30
2018-01-31T17:34:20.896Z,52.20
2018-01-31T17:36:53.686Z,52.30
2018-01-31T17:39:26.199Z,52.30
2018-01-31T17:41:58.737Z,52.30
2018-01-31T17:44:31.984Z,52.30
2018-01-31T17:47:05.116Z,52.30
2018-01-31T17:49:38.032Z,52.30
2018-01-31T17:52:11.947Z,52.30
2018-01-31T17:54:44.651Z,52.30
2018-01-31T17:57:17.087Z,52.20
2018-01-31T17:59:49.651Z,52.20
2018-01-31T18:02:22.115Z,52.20
2018-01-31T18:04:54.610Z,52.20
2018-01-31T18:07:27.061Z,52.10
2018-01-31T18:10:00.399Z,52.30
2018-01-31T18:12:32.994Z,52.40
2018-01-31T18:15:06.483Z,52.40
2018-01-31T18:17:40.587Z,52.30
2018-01-31T18:20:13.475Z,52.30
2018-01-31T18:22:46.822Z,52.10
2018-01-31T18:25:19.449Z,52.20
2018-01-31T18:27:52.733Z,52.10
2018-01-31T18:30:25.928Z,52.10
2018-01-31T18:32:58.604Z,52.10
2018-01-31T18:35:31.000Z,51.90
2018-01-31T18:38:04.245Z,51.90
2018-01-31T18:40:37.518Z,52.10
2018-01-31T18:43:10.673Z,52.20
2018-01-31T18:45:43.328Z,52.20
2018-01-31T18:48:17.441Z,52.20
2018-01-31T18:50:50.936Z,52.40
2018-01-31T18:53:24.320Z,52.20
2018-01-31T18:55:56.961Z,52.20
2018-01-31T18:58:29.715Z,52.30
2018-01-31T19:01:02.990Z,52.20
2018-01-31T19:03:35.923Z,52.20
2018-01-31T19:06:08.391Z,52.10
2018-01-31T19:08:41.164Z,52.20
2018-01-31T19:11:14.765Z,52.80
2018-01-31T19:13:48.135Z,52.20
2018-01-31T19:16:21.794Z,52.30
2018-01-31T19:18:54.986Z,53.30
2018-01-31T19:21:28.783Z,52.10
2018-01-31T19:24:02.430Z,52.20
2018-01-31T19:26:37.313Z,52.20
2018-01-31T19:29:11.417Z,52.90
2018-01-31T19:31:45.130Z,52.30
2018-01-31T19:34:18.828Z,52.10
2018-01-31T19:36:53.554Z,53.00
2018-01-31T19:39:28.672Z,53.40
2018-01-31T19:42:04.067Z,53.50
2018-01-31T19:44:39.880Z,53.90
2018-01-31T19:47:15.530Z,54.60
2018-01-31T19:49:51.709Z,54.70
2018-01-31T19:52:28.613Z,54.80
2018-01-31T19:55:04.634Z,55.00
2018-01-31T19:57:40.877Z,54.60
2018-01-31T20:00:17.563Z,54.50
2018-01-31T20:02:54.045Z,53.90
2018-01-31T20:05:30.742Z,54.60
2018-01-31T20:08:07.747Z,54.00
2018-01-31T20:10:43.322Z,54.10
2018-01-31T20:13:19.280Z,53.80
2018-01-31T20:15:54.141Z,52.90
2018-01-31T20:18:31.808Z,52.90
2018-01-31T20:21:07.243Z,52.90
2018-01-31T20:23:43.807Z,52.80
2018-01-31T20:26:19.463Z,53.20
2018-01-31T20:28:55.553Z,54.20
2018-01-31T20:31:31.369Z,54.00
2018-01-31T20:34:07.346Z,53.60
2018-01-31T20:36:43.609Z,54.90
2018-01-31T20:39:20.148Z,54.90
2018-01-31T20:41:56.172Z,54.90
2018-01-31T20:44:31.871Z,54.40
2018-01-31T20:47:07.120Z,54.60
2018-01-31T20:49:42.734Z,53.90
2018-01-31T20:52:18.083Z,54.20
2018-01-31T20:54:53.527Z,54.70
2018-01-31T20:57:29.657Z,53.90
2018-01-31T21:00:04.410Z,53.90
2018-01-31T21:02:39.876Z,53.60
2018-01-31T21:05:16.730Z,53.40
2018-01-31T21:07:53.450Z,53.00
2018-01-31T21:10:29.034Z,53.00
2018-01-31T21:13:04.291Z,52.40
2018-01-31T21:15:40.638Z,52.70
2018-01-31T21:18:15.929Z,52.30
2018-01-31T21:20:51.255Z,52.60
2018-01-31T21:23:26.888Z,52.80
2018-01-31T21:26:02.711Z,52.50
2018-01-31T21:28:37.962Z,52.70
2018-01-31T21:31:13.807Z,52.50
2018-01-31T21:33:48.690Z,53.00
2018-01-31T21:36:23.827Z,53.90
2018-01-31T21:38:58.038Z,53.10
2018-01-31T21:41:30.907Z,53.40
2018-01-31T21:44:04.015Z,54.00
2018-01-31T21:46:36.458Z,53.60
2018-01-31T21:49:09.097Z,53.80
2018-01-31T21:51:42.625Z,53.90
2018-01-31T21:54:15.709Z,54.20
2018-01-31T21:56:48.289Z,53.80
2018-01-31T21:59:21.572Z,54.00
2018-01-31T22:01:55.023Z,54.00
2018-01-31T22:04:28.265Z,54.50
2018-01-31T22:07:00.843Z,54.70
2018-01-31T22:09:33.329Z,54.40
2018-01-31T22:12:05.756Z,54.30
2018-01-31T22:14:39.731Z,54.80
2018-01-31T22:17:12.589Z,54.80
2018-01-31T22:19:45.085Z,55.10
2018-01-31T22:22:17.659Z,55.30
2018-01-31T22:24:50.318Z,55.40
2018-01-31T22:27:23.716Z,56.50
2018-01-31T22:29:56.321Z,56.70
2018-01-31T22:32:29.065Z,56.60
2018-01-31T22:35:01.537Z,56.70
2018-01-31T22:37:34.195Z,57.00
2018-01-31T22:40:08.158Z,57.30
2018-01-31T22:42:41.170Z,57.30
2018-01-31T22:45:14.512Z,57.50
2018-01-31T22:47:47.063Z,57.70
2018-01-31T22:50:19.454Z,58.00
2018-01-31T22:52:52.133Z,58.50
2018-01-31T22:55:24.686Z,58.50
2018-01-31T22:57:57.349Z,58.60
2018-01-31T23:00:31.433Z,59.00
2018-01-31T23:03:04.035Z,58.90
2018-01-31T23:05:36.430Z,58.90
2018-01-31T23:08:09.092Z,59.30
2018-01-31T23:10:43.239Z,59.60
2018-01-31T23:13:17.950Z,59.50
2018-01-31T23:15:50.620Z,59.80
2018-01-31T23:18:24.194Z,60.10
2018-01-31T23:20:57.450Z,60.00
2018-01-31T23:23:30.475Z,59.80
2018-01-31T23:26:03.587Z,59.70
2018-01-31T23:28:36.192Z,60.00
2018-01-31T23:31:09.284Z,60.40
2018-01-31T23:33:42.322Z,60.40
2018-01-31T23:36:15.669Z,60.20
2018-01-31T23:38:48.343Z,60.20
2018-01-31T23:41:20.723Z,60.30
2018-01-31T23:43:53.495Z,60.60
2018-01-31T23:46:25.891Z,60.60
2018-01-31T23:48:58.439Z,60.40
2018-01-31T23:51:31.043Z,60.20
2018-01-31T23:54:03.457Z,60.10
2018-01-31T23:56:35.936Z,60.10
2018-01-31T23:59:09.315Z,60.20
